sensor_id;sensor_type;location;lat;lon;timestamp;P1;durP1;ratioP1;P2;durP2;ratioP2
9166;SDS011;4618;48.818;9.088;2022-10-16T00:00:18;0.70;;;0.70;;
9166;SDS011;4618;48.818;9.088;2022-10-16T00:02:43;0.60;;;0.60;;
9166;SDS011;4618;48.818;9.088;2022-10-16T00:05:09;0.93;;;0.87;;
9166;SDS011;4618;48.818;9.088;2022-10-16T00:07:35;1.57;;;0.80;;
9166;SDS011;4618;48.818;9.088;2022-10-16T00:10:00;4.10;;;0.80;;
9166;SDS011;4618;48.818;9.088;2022-10-16T00:12:26;1.23;;;0.87;;
9166;SDS011;4618;48.818;9.088;2022-10-16T00:14:51;1.77;;;0.90;;
9166;SDS011;4618;48.818;9.088;2022-10-16T00:17:17;2.33;;;0.70;;
9166;SDS011;4618;48.818;9.088;2022-10-16T00:19:42;2.70;;;1.17;;
9166;SDS011;4618;48.818;9.088;2022-10-16T00:22:08;3.37;;;1.03;;
9166;SDS011;4618;48.818;9.088;2022-10-16T00:24:34;1.40;;;0.80;;
9166;SDS011;4618;48.818;9.088;2022-10-16T00:26:59;0.93;;;0.70;;
9166;SDS011;4618;48.818;9.088;2022-10-16T00:29:25;1.53;;;0.83;;
9166;SDS011;4618;48.818;9.088;2022-10-16T00:31:50;1.17;;;0.90;;
9166;SDS011;4618;48.818;9.088;2022-10-16T00:34:16;1.13;;;0.90;;
9166;SDS011;4618;48.818;9.088;2022-10-16T00:36:41;2.27;;;0.90;;
9166;SDS011;4618;48.818;9.088;2022-10-16T00:39:07;2.23;;;0.70;;
9166;SDS011;4618;48.818;9.088;2022-10-16T00:41:33;1.03;;;0.90;;
9166;SDS011;4618;48.818;9.088;2022-10-16T00:43:59;3.50;;;0.93;;
9166;SDS011;4618;48.818;9.088;2022-10-16T00:46:28;0.80;;;0.80;;
9166;SDS011;4618;48.818;9.088;2022-10-16T00:49:03;0.97;;;0.87;;
9166;SDS011;4618;48.818;9.088;2022-10-16T00:51:35;1.23;;;0.80;;
9166;SDS011;4618;48.818;9.088;2022-10-16T00:54:08;1.10;;;1.00;;
9166;SDS011;4618;48.818;9.088;2022-10-16T00:56:55;1.03;;;0.90;;
9166;SDS011;4618;48.818;9.088;2022-10-16T00:59:28;3.37;;;0.80;;
9166;SDS011;4618;48.818;9.088;2022-10-16T01:01:56;1.00;;;0.70;;
9166;SDS011;4618;48.818;9.088;2022-10-16T01:04:23;1.27;;;0.90;;
9166;SDS011;4618;48.818;9.088;2022-10-16T01:12:26;2.30;;;0.80;;
9166;SDS011;4618;48.818;9.088;2022-10-16T01:17:57;0.77;;;0.77;;
9166;SDS011;4618;48.818;9.088;2022-10-16T01:20:31;1.70;;;0.93;;
9166;SDS011;4618;48.818;9.088;2022-10-16T01:28:41;5.03;;;0.80;;
9166;SDS011;4618;48.818;9.088;2022-10-16T01:31:27;3.30;;;0.77;;
9166;SDS011;4618;48.818;9.088;2022-10-16T01:34:16;2.57;;;0.93;;
9166;SDS011;4618;48.818;9.088;2022-10-16T01:36:48;0.83;;;0.73;;
9166;SDS011;4618;48.818;9.088;2022-10-16T01:39:21;0.83;;;0.80;;
9166;SDS011;4618;48.818;9.088;2022-10-16T01:41:52;1.87;;;0.97;;
9166;SDS011;4618;48.818;9.088;2022-10-16T01:44:28;1.03;;;0.97;;
9166;SDS011;4618;48.818;9.088;2022-10-16T01:46:56;1.27;;;0.83;;
9166;SDS011;4618;48.818;9.088;2022-10-16T01:49:22;1.27;;;0.90;;
9166;SDS011;4618;48.818;9.088;2022-10-16T01:51:52;1.80;;;0.97;;
9166;SDS011;4618;48.818;9.088;2022-10-16T01:54:20;1.60;;;0.90;;
9166;SDS011;4618;48.818;9.088;2022-10-16T01:56:50;1.70;;;0.90;;
9166;SDS011;4618;48.818;9.088;2022-10-16T01:59:18;1.20;;;0.80;;
9166;SDS011;4618;48.818;9.088;2022-10-16T02:01:50;2.07;;;1.10;;
9166;SDS011;4618;48.818;9.088;2022-10-16T02:04:22;3.47;;;1.10;;
9166;SDS011;4618;48.818;9.088;2022-10-16T02:06:54;1.57;;;0.90;;
9166;SDS011;4618;48.818;9.088;2022-10-16T02:09:20;1.77;;;0.90;;
9166;SDS011;4618;48.818;9.088;2022-10-16T02:11:46;2.17;;;1.03;;
9166;SDS011;4618;48.818;9.088;2022-10-16T02:14:11;1.10;;;0.90;;
9166;SDS011;4618;48.818;9.088;2022-10-16T02:16:41;1.07;;;0.83;;
9166;SDS011;4618;48.818;9.088;2022-10-16T02:19:09;1.20;;;0.80;;
9166;SDS011;4618;48.818;9.088;2022-10-16T02:21:39;0.93;;;0.80;;
9166;SDS011;4618;48.818;9.088;2022-10-16T02:26:54;1.53;;;0.87;;
9166;SDS011;4618;48.818;9.088;2022-10-16T02:29:25;1.33;;;0.90;;
9166;SDS011;4618;48.818;9.088;2022-10-16T02:31:58;1.70;;;0.73;;
9166;SDS011;4618;48.818;9.088;2022-10-16T02:34:27;1.50;;;0.90;;
9166;SDS011;4618;48.818;9.088;2022-10-16T02:36:55;3.70;;;1.03;;
9166;SDS011;4618;48.818;9.088;2022-10-16T02:39:22;2.47;;;0.87;;
9166;SDS011;4618;48.818;9.088;2022-10-16T02:41:48;2.43;;;0.80;;
9166;SDS011;4618;48.818;9.088;2022-10-16T02:44:13;2.13;;;0.80;;
9166;SDS011;4618;48.818;9.088;2022-10-16T02:46:39;1.63;;;0.90;;
9166;SDS011;4618;48.818;9.088;2022-10-16T02:49:05;2.13;;;0.80;;
9166;SDS011;4618;48.818;9.088;2022-10-16T02:51:30;3.13;;;0.90;;
9166;SDS011;4618;48.818;9.088;2022-10-16T02:53:56;1.07;;;0.80;;
9166;SDS011;4618;48.818;9.088;2022-10-16T02:56:21;1.30;;;0.83;;
9166;SDS011;4618;48.818;9.088;2022-10-16T02:58:47;1.53;;;0.70;;
9166;SDS011;4618;48.818;9.088;2022-10-16T03:01:12;1.20;;;0.73;;
9166;SDS011;4618;48.818;9.088;2022-10-16T03:03:39;1.20;;;0.93;;
9166;SDS011;4618;48.818;9.088;2022-10-16T03:06:05;1.53;;;0.83;;
9166;SDS011;4618;48.818;9.088;2022-10-16T03:08:31;1.30;;;0.97;;
9166;SDS011;4618;48.818;9.088;2022-10-16T03:10:56;2.53;;;1.00;;
9166;SDS011;4618;48.818;9.088;2022-10-16T03:13:22;2.10;;;0.90;;
9166;SDS011;4618;48.818;9.088;2022-10-16T03:15:47;0.97;;;0.80;;
9166;SDS011;4618;48.818;9.088;2022-10-16T03:18:13;2.90;;;0.87;;
9166;SDS011;4618;48.818;9.088;2022-10-16T03:20:39;5.97;;;0.80;;
9166;SDS011;4618;48.818;9.088;2022-10-16T03:23:04;2.50;;;0.90;;
9166;SDS011;4618;48.818;9.088;2022-10-16T03:25:31;3.00;;;1.03;;
9166;SDS011;4618;48.818;9.088;2022-10-16T03:27:57;2.90;;;1.00;;
9166;SDS011;4618;48.818;9.088;2022-10-16T03:30:22;3.70;;;0.73;;
9166;SDS011;4618;48.818;9.088;2022-10-16T03:32:48;1.00;;;0.90;;
9166;SDS011;4618;48.818;9.088;2022-10-16T03:35:18;1.80;;;1.00;;
9166;SDS011;4618;48.818;9.088;2022-10-16T03:37:48;2.03;;;0.90;;
9166;SDS011;4618;48.818;9.088;2022-10-16T03:40:13;1.17;;;0.90;;
9166;SDS011;4618;48.818;9.088;2022-10-16T03:42:39;1.23;;;0.83;;
9166;SDS011;4618;48.818;9.088;2022-10-16T03:45:05;1.40;;;1.07;;
9166;SDS011;4618;48.818;9.088;2022-10-16T03:47:30;3.13;;;1.00;;
9166;SDS011;4618;48.818;9.088;2022-10-16T03:49:58;3.13;;;1.20;;
9166;SDS011;4618;48.818;9.088;2022-10-16T03:52:24;1.77;;;0.80;;
9166;SDS011;4618;48.818;9.088;2022-10-16T03:54:50;2.37;;;1.00;;
9166;SDS011;4618;48.818;9.088;2022-10-16T03:57:15;4.30;;;0.93;;
9166;SDS011;4618;48.818;9.088;2022-10-16T03:59:41;3.07;;;0.90;;
9166;SDS011;4618;48.818;9.088;2022-10-16T04:02:07;3.03;;;0.93;;
9166;SDS011;4618;48.818;9.088;2022-10-16T04:04:32;0.93;;;0.90;;
9166;SDS011;4618;48.818;9.088;2022-10-16T04:06:58;2.63;;;1.00;;
9166;SDS011;4618;48.818;9.088;2022-10-16T04:09:24;5.10;;;0.80;;
9166;SDS011;4618;48.818;9.088;2022-10-16T04:11:49;3.57;;;0.93;;
9166;SDS011;4618;48.818;9.088;2022-10-16T04:14:15;1.40;;;0.83;;
9166;SDS011;4618;48.818;9.088;2022-10-16T04:16:41;1.67;;;0.73;;
9166;SDS011;4618;48.818;9.088;2022-10-16T04:19:06;2.07;;;0.80;;
9166;SDS011;4618;48.818;9.088;2022-10-16T04:21:32;2.13;;;1.00;;
9166;SDS011;4618;48.818;9.088;2022-10-16T04:23:57;2.97;;;0.93;;
9166;SDS011;4618;48.818;9.088;2022-10-16T04:26:23;2.40;;;1.03;;
9166;SDS011;4618;48.818;9.088;2022-10-16T04:28:49;2.60;;;0.97;;
9166;SDS011;4618;48.818;9.088;2022-10-16T04:31:14;1.77;;;0.77;;
9166;SDS011;4618;48.818;9.088;2022-10-16T04:33:42;1.60;;;0.83;;
9166;SDS011;4618;48.818;9.088;2022-10-16T04:36:08;2.70;;;1.00;;
9166;SDS011;4618;48.818;9.088;2022-10-16T04:38:33;2.43;;;0.90;;
9166;SDS011;4618;48.818;9.088;2022-10-16T04:40:59;0.87;;;0.80;;
9166;SDS011;4618;48.818;9.088;2022-10-16T04:43:25;2.47;;;0.93;;
9166;SDS011;4618;48.818;9.088;2022-10-16T04:45:50;0.80;;;0.80;;
9166;SDS011;4618;48.818;9.088;2022-10-16T04:48:16;1.40;;;0.90;;
9166;SDS011;4618;48.818;9.088;2022-10-16T04:50:43;3.13;;;0.93;;
9166;SDS011;4618;48.818;9.088;2022-10-16T04:53:08;1.33;;;1.00;;
9166;SDS011;4618;48.818;9.088;2022-10-16T04:55:34;2.30;;;0.90;;
9166;SDS011;4618;48.818;9.088;2022-10-16T04:58:00;1.30;;;0.90;;
9166;SDS011;4618;48.818;9.088;2022-10-16T05:00:25;2.07;;;0.80;;
9166;SDS011;4618;48.818;9.088;2022-10-16T05:02:51;1.50;;;1.00;;
9166;SDS011;4618;48.818;9.088;2022-10-16T05:05:16;1.57;;;1.00;;
9166;SDS011;4618;48.818;9.088;2022-10-16T05:07:44;2.00;;;1.00;;
9166;SDS011;4618;48.818;9.088;2022-10-16T05:10:14;1.10;;;1.00;;
9166;SDS011;4618;48.818;9.088;2022-10-16T05:12:40;3.50;;;1.07;;
9166;SDS011;4618;48.818;9.088;2022-10-16T05:15:06;2.13;;;1.03;;
9166;SDS011;4618;48.818;9.088;2022-10-16T05:17:32;2.33;;;1.23;;
9166;SDS011;4618;48.818;9.088;2022-10-16T05:19:57;2.93;;;1.23;;
9166;SDS011;4618;48.818;9.088;2022-10-16T05:22:23;1.17;;;1.03;;
9166;SDS011;4618;48.818;9.088;2022-10-16T05:24:48;1.13;;;1.00;;
9166;SDS011;4618;48.818;9.088;2022-10-16T05:27:14;2.83;;;1.20;;
9166;SDS011;4618;48.818;9.088;2022-10-16T05:29:46;3.53;;;1.40;;
9166;SDS011;4618;48.818;9.088;2022-10-16T05:32:13;2.60;;;1.23;;
9166;SDS011;4618;48.818;9.088;2022-10-16T05:34:40;4.20;;;1.40;;
9166;SDS011;4618;48.818;9.088;2022-10-16T05:37:06;3.83;;;1.67;;
9166;SDS011;4618;48.818;9.088;2022-10-16T05:39:31;2.20;;;1.30;;
9166;SDS011;4618;48.818;9.088;2022-10-16T05:41:57;1.53;;;1.20;;
9166;SDS011;4618;48.818;9.088;2022-10-16T05:44:23;2.73;;;1.40;;
9166;SDS011;4618;48.818;9.088;2022-10-16T05:46:48;1.53;;;1.20;;
9166;SDS011;4618;48.818;9.088;2022-10-16T05:49:14;1.87;;;1.27;;
9166;SDS011;4618;48.818;9.088;2022-10-16T05:51:40;2.27;;;1.50;;
9166;SDS011;4618;48.818;9.088;2022-10-16T05:54:06;2.13;;;0.93;;
9166;SDS011;4618;48.818;9.088;2022-10-16T05:56:32;3.43;;;1.40;;
9166;SDS011;4618;48.818;9.088;2022-10-16T05:58:57;2.90;;;1.00;;
9166;SDS011;4618;48.818;9.088;2022-10-16T06:01:23;1.30;;;1.20;;
9166;SDS011;4618;48.818;9.088;2022-10-16T06:03:50;2.77;;;1.07;;
9166;SDS011;4618;48.818;9.088;2022-10-16T06:06:18;1.40;;;1.00;;
9166;SDS011;4618;48.818;9.088;2022-10-16T06:08:46;2.53;;;1.10;;
9166;SDS011;4618;48.818;9.088;2022-10-16T06:11:17;1.60;;;1.10;;
9166;SDS011;4618;48.818;9.088;2022-10-16T06:13:44;3.63;;;1.30;;
9166;SDS011;4618;48.818;9.088;2022-10-16T06:16:13;4.20;;;1.13;;
9166;SDS011;4618;48.818;9.088;2022-10-16T06:18:39;1.37;;;1.20;;
9166;SDS011;4618;48.818;9.088;2022-10-16T06:21:08;1.30;;;1.00;;
9166;SDS011;4618;48.818;9.088;2022-10-16T06:23:36;2.50;;;1.07;;
9166;SDS011;4618;48.818;9.088;2022-10-16T06:26:06;1.97;;;1.00;;
9166;SDS011;4618;48.818;9.088;2022-10-16T06:28:32;1.10;;;1.00;;
9166;SDS011;4618;48.818;9.088;2022-10-16T06:31:01;2.97;;;1.10;;
9166;SDS011;4618;48.818;9.088;2022-10-16T06:33:27;1.17;;;1.00;;
9166;SDS011;4618;48.818;9.088;2022-10-16T06:35:53;3.73;;;1.30;;
9166;SDS011;4618;48.818;9.088;2022-10-16T06:38:19;2.50;;;1.03;;
9166;SDS011;4618;48.818;9.088;2022-10-16T06:40:44;2.20;;;1.00;;
9166;SDS011;4618;48.818;9.088;2022-10-16T06:43:10;1.27;;;0.93;;
9166;SDS011;4618;48.818;9.088;2022-10-16T06:45:35;1.20;;;1.00;;
9166;SDS011;4618;48.818;9.088;2022-10-16T06:48:01;1.33;;;0.90;;
9166;SDS011;4618;48.818;9.088;2022-10-16T06:50:26;2.57;;;0.90;;
9166;SDS011;4618;48.818;9.088;2022-10-16T06:52:52;2.90;;;1.10;;
9166;SDS011;4618;48.818;9.088;2022-10-16T06:55:17;2.57;;;1.20;;
9166;SDS011;4618;48.818;9.088;2022-10-16T06:57:43;1.30;;;1.00;;
9166;SDS011;4618;48.818;9.088;2022-10-16T07:00:11;4.30;;;1.10;;
9166;SDS011;4618;48.818;9.088;2022-10-16T07:02:37;2.67;;;1.13;;
9166;SDS011;4618;48.818;9.088;2022-10-16T07:05:02;3.77;;;1.07;;
9166;SDS011;4618;48.818;9.088;2022-10-16T07:07:29;2.97;;;1.13;;
9166;SDS011;4618;48.818;9.088;2022-10-16T07:09:54;2.20;;;1.10;;
9166;SDS011;4618;48.818;9.088;2022-10-16T07:12:20;2.43;;;1.20;;
9166;SDS011;4618;48.818;9.088;2022-10-16T07:14:45;1.13;;;0.83;;
9166;SDS011;4618;48.818;9.088;2022-10-16T07:17:11;2.00;;;1.10;;
9166;SDS011;4618;48.818;9.088;2022-10-16T07:19:36;6.73;;;1.10;;
9166;SDS011;4618;48.818;9.088;2022-10-16T07:22:02;1.93;;;0.90;;
9166;SDS011;4618;48.818;9.088;2022-10-16T07:24:28;2.70;;;0.90;;
9166;SDS011;4618;48.818;9.088;2022-10-16T07:26:53;2.30;;;0.90;;
9166;SDS011;4618;48.818;9.088;2022-10-16T07:29:20;1.00;;;1.00;;
9166;SDS011;4618;48.818;9.088;2022-10-16T07:31:47;3.47;;;1.30;;
9166;SDS011;4618;48.818;9.088;2022-10-16T07:34:13;2.30;;;0.90;;
9166;SDS011;4618;48.818;9.088;2022-10-16T07:36:41;1.43;;;1.00;;
9166;SDS011;4618;48.818;9.088;2022-10-16T07:39:07;1.47;;;0.90;;
9166;SDS011;4618;48.818;9.088;2022-10-16T07:41:33;3.03;;;1.20;;
9166;SDS011;4618;48.818;9.088;2022-10-16T07:44:01;2.10;;;1.13;;
9166;SDS011;4618;48.818;9.088;2022-10-16T07:46:28;2.57;;;1.40;;
9166;SDS011;4618;48.818;9.088;2022-10-16T07:48:54;1.87;;;1.20;;
9166;SDS011;4618;48.818;9.088;2022-10-16T07:51:22;9.43;;;1.30;;
9166;SDS011;4618;48.818;9.088;2022-10-16T07:53:49;3.70;;;1.13;;
9166;SDS011;4618;48.818;9.088;2022-10-16T07:56:15;2.97;;;1.20;;
9166;SDS011;4618;48.818;9.088;2022-10-16T07:58:41;3.63;;;1.20;;
9166;SDS011;4618;48.818;9.088;2022-10-16T08:01:07;3.13;;;1.03;;
9166;SDS011;4618;48.818;9.088;2022-10-16T08:03:35;2.50;;;1.33;;
9166;SDS011;4618;48.818;9.088;2022-10-16T08:06:01;2.20;;;0.80;;
9166;SDS011;4618;48.818;9.088;2022-10-16T08:08:28;2.63;;;1.00;;
9166;SDS011;4618;48.818;9.088;2022-10-16T08:10:54;3.53;;;1.10;;
9166;SDS011;4618;48.818;9.088;2022-10-16T08:13:19;2.83;;;0.90;;
9166;SDS011;4618;48.818;9.088;2022-10-16T08:15:45;3.80;;;1.20;;
9166;SDS011;4618;48.818;9.088;2022-10-16T08:18:12;2.30;;;1.00;;
9166;SDS011;4618;48.818;9.088;2022-10-16T08:20:39;2.70;;;1.17;;
9166;SDS011;4618;48.818;9.088;2022-10-16T08:23:06;3.17;;;0.87;;
9166;SDS011;4618;48.818;9.088;2022-10-16T08:25:34;2.97;;;0.77;;
9166;SDS011;4618;48.818;9.088;2022-10-16T08:28:03;2.80;;;0.83;;
9166;SDS011;4618;48.818;9.088;2022-10-16T08:30:29;1.53;;;0.80;;
9166;SDS011;4618;48.818;9.088;2022-10-16T08:32:55;3.03;;;0.90;;
9166;SDS011;4618;48.818;9.088;2022-10-16T08:35:20;1.90;;;0.63;;
9166;SDS011;4618;48.818;9.088;2022-10-16T08:37:46;1.60;;;0.73;;
9166;SDS011;4618;48.818;9.088;2022-10-16T08:40:19;2.70;;;0.80;;
9166;SDS011;4618;48.818;9.088;2022-10-16T08:42:55;1.83;;;0.90;;
9166;SDS011;4618;48.818;9.088;2022-10-16T08:51:01;0.77;;;0.77;;
9166;SDS011;4618;48.818;9.088;2022-10-16T08:53:28;0.93;;;0.73;;
9166;SDS011;4618;48.818;9.088;2022-10-16T08:55:58;1.17;;;0.70;;
9166;SDS011;4618;48.818;9.088;2022-10-16T08:58:28;0.77;;;0.60;;
9166;SDS011;4618;48.818;9.088;2022-10-16T09:00:59;2.40;;;0.90;;
9166;SDS011;4618;48.818;9.088;2022-10-16T09:11:50;2.33;;;0.60;;
9166;SDS011;4618;48.818;9.088;2022-10-16T09:22:45;1.77;;;0.80;;
9166;SDS011;4618;48.818;9.088;2022-10-16T09:25:15;3.70;;;0.70;;
9166;SDS011;4618;48.818;9.088;2022-10-16T09:27:44;2.07;;;0.90;;
9166;SDS011;4618;48.818;9.088;2022-10-16T09:30:16;2.90;;;0.57;;
9166;SDS011;4618;48.818;9.088;2022-10-16T09:32:44;1.13;;;0.80;;
9166;SDS011;4618;48.818;9.088;2022-10-16T09:35:16;1.63;;;0.70;;
9166;SDS011;4618;48.818;9.088;2022-10-16T09:37:44;1.57;;;0.80;;
9166;SDS011;4618;48.818;9.088;2022-10-16T09:40:23;2.00;;;0.90;;
9166;SDS011;4618;48.818;9.088;2022-10-16T09:43:02;1.77;;;0.77;;
9166;SDS011;4618;48.818;9.088;2022-10-16T09:45:28;1.10;;;0.80;;
9166;SDS011;4618;48.818;9.088;2022-10-16T09:47:54;3.57;;;0.80;;
9166;SDS011;4618;48.818;9.088;2022-10-16T09:50:21;3.20;;;0.70;;
9166;SDS011;4618;48.818;9.088;2022-10-16T09:53:02;2.63;;;0.70;;
9166;SDS011;4618;48.818;9.088;2022-10-16T09:55:35;1.80;;;0.80;;
9166;SDS011;4618;48.818;9.088;2022-10-16T09:58:01;1.33;;;1.00;;
9166;SDS011;4618;48.818;9.088;2022-10-16T10:00:26;1.10;;;0.70;;
9166;SDS011;4618;48.818;9.088;2022-10-16T10:02:52;1.73;;;0.77;;
9166;SDS011;4618;48.818;9.088;2022-10-16T10:05:23;2.37;;;0.77;;
9166;SDS011;4618;48.818;9.088;2022-10-16T10:07:57;1.30;;;0.70;;
9166;SDS011;4618;48.818;9.088;2022-10-16T10:10:31;1.63;;;0.73;;
9166;SDS011;4618;48.818;9.088;2022-10-16T10:12:59;2.50;;;1.00;;
9166;SDS011;4618;48.818;9.088;2022-10-16T10:15:25;3.80;;;1.00;;
9166;SDS011;4618;48.818;9.088;2022-10-16T10:17:58;2.40;;;0.90;;
9166;SDS011;4618;48.818;9.088;2022-10-16T10:22:51;1.80;;;0.73;;
9166;SDS011;4618;48.818;9.088;2022-10-16T10:31:02;3.67;;;0.93;;
9166;SDS011;4618;48.818;9.088;2022-10-16T10:46:44;1.77;;;1.20;;
9166;SDS011;4618;48.818;9.088;2022-10-16T10:49:39;1.25;;;0.98;;
9166;SDS011;4618;48.818;9.088;2022-10-16T10:54:39;1.05;;;0.73;;
9166;SDS011;4618;48.818;9.088;2022-10-16T11:02:57;4.35;;;0.90;;
9166;SDS011;4618;48.818;9.088;2022-10-16T11:05:47;5.53;;;2.55;;
9166;SDS011;4618;48.818;9.088;2022-10-16T11:08:30;2.97;;;1.77;;
9166;SDS011;4618;48.818;9.088;2022-10-16T11:12:23;1.60;;;1.50;;
9166;SDS011;4618;48.818;9.088;2022-10-16T11:14:29;1.65;;;1.15;;
9166;SDS011;4618;48.818;9.088;2022-10-16T11:17:04;2.25;;;0.90;;
9166;SDS011;4618;48.818;9.088;2022-10-16T11:22:26;2.55;;;0.70;;
9166;SDS011;4618;48.818;9.088;2022-10-16T11:24:53;0.88;;;0.80;;
9166;SDS011;4618;48.818;9.088;2022-10-16T11:30:33;2.20;;;0.80;;
9166;SDS011;4618;48.818;9.088;2022-10-16T11:33:59;0.65;;;0.65;;
9166;SDS011;4618;48.818;9.088;2022-10-16T11:36:48;2.47;;;0.68;;
9166;SDS011;4618;48.818;9.088;2022-10-16T11:39:22;1.20;;;0.70;;
9166;SDS011;4618;48.818;9.088;2022-10-16T11:47:43;1.80;;;0.60;;
9166;SDS011;4618;48.818;9.088;2022-10-16T11:55:54;1.88;;;0.73;;
9166;SDS011;4618;48.818;9.088;2022-10-16T12:08:43;1.25;;;0.98;;
9166;SDS011;4618;48.818;9.088;2022-10-16T12:11:21;0.60;;;0.60;;
9166;SDS011;4618;48.818;9.088;2022-10-16T12:16:37;1.77;;;0.60;;
9166;SDS011;4618;48.818;9.088;2022-10-16T12:19:25;1.10;;;0.60;;
9166;SDS011;4618;48.818;9.088;2022-10-16T12:21:52;0.95;;;0.70;;
9166;SDS011;4618;48.818;9.088;2022-10-16T12:24:37;2.78;;;0.70;;
9166;SDS011;4618;48.818;9.088;2022-10-16T12:27:06;3.33;;;0.77;;
9166;SDS011;4618;48.818;9.088;2022-10-16T12:29:59;1.40;;;0.68;;
9166;SDS011;4618;48.818;9.088;2022-10-16T12:34:54;0.70;;;0.70;;
9166;SDS011;4618;48.818;9.088;2022-10-16T12:37:21;1.55;;;0.70;;
9166;SDS011;4618;48.818;9.088;2022-10-16T12:39:48;3.72;;;0.77;;
9166;SDS011;4618;48.818;9.088;2022-10-16T12:44:56;0.90;;;0.73;;
9166;SDS011;4618;48.818;9.088;2022-10-16T12:47:23;2.33;;;0.60;;
9166;SDS011;4618;48.818;9.088;2022-10-16T12:49:55;0.80;;;0.70;;
9166;SDS011;4618;48.818;9.088;2022-10-16T12:52:29;3.08;;;0.90;;
9166;SDS011;4618;48.818;9.088;2022-10-16T12:55:02;2.90;;;0.68;;
9166;SDS011;4618;48.818;9.088;2022-10-16T13:27:59;1.35;;;0.80;;
9166;SDS011;4618;48.818;9.088;2022-10-16T13:30:25;2.28;;;0.77;;
9166;SDS011;4618;48.818;9.088;2022-10-16T13:35:31;3.05;;;1.00;;
9166;SDS011;4618;48.818;9.088;2022-10-16T13:38:06;1.60;;;1.02;;
9166;SDS011;4618;48.818;9.088;2022-10-16T13:41:00;7.85;;;6.07;;
9166;SDS011;4618;48.818;9.088;2022-10-16T13:43:27;7.35;;;5.32;;
9166;SDS011;4618;48.818;9.088;2022-10-16T13:45:59;2.72;;;2.15;;
9166;SDS011;4618;48.818;9.088;2022-10-16T13:48:27;1.63;;;1.00;;
9166;SDS011;4618;48.818;9.088;2022-10-16T13:51:10;4.13;;;1.00;;
9166;SDS011;4618;48.818;9.088;2022-10-16T13:53:36;1.08;;;0.85;;
9166;SDS011;4618;48.818;9.088;2022-10-16T13:56:03;4.07;;;0.95;;
9166;SDS011;4618;48.818;9.088;2022-10-16T13:58:30;2.67;;;1.30;;
9166;SDS011;4618;48.818;9.088;2022-10-16T14:00:58;2.30;;;0.80;;
9166;SDS011;4618;48.818;9.088;2022-10-16T14:03:26;0.88;;;0.80;;
9166;SDS011;4618;48.818;9.088;2022-10-16T14:05:54;1.67;;;0.73;;
9166;SDS011;4618;48.818;9.088;2022-10-16T14:08:23;3.35;;;0.90;;
9166;SDS011;4618;48.818;9.088;2022-10-16T14:10:52;2.67;;;0.80;;
9166;SDS011;4618;48.818;9.088;2022-10-16T14:13:29;2.67;;;1.80;;
9166;SDS011;4618;48.818;9.088;2022-10-16T14:16:09;2.15;;;1.70;;
9166;SDS011;4618;48.818;9.088;2022-10-16T14:18:41;3.00;;;1.20;;
9166;SDS011;4618;48.818;9.088;2022-10-16T14:21:14;1.27;;;1.10;;
9166;SDS011;4618;48.818;9.088;2022-10-16T14:23:41;1.42;;;0.90;;
9166;SDS011;4618;48.818;9.088;2022-10-16T14:28:36;1.10;;;1.00;;
9166;SDS011;4618;48.818;9.088;2022-10-16T14:31:13;2.17;;;1.00;;
9166;SDS011;4618;48.818;9.088;2022-10-16T14:33:49;1.95;;;1.15;;
9166;SDS011;4618;48.818;9.088;2022-10-16T14:36:15;2.58;;;2.20;;
9166;SDS011;4618;48.818;9.088;2022-10-16T14:41:41;1.20;;;1.20;;
9166;SDS011;4618;48.818;9.088;2022-10-16T14:44:10;2.20;;;1.10;;
9166;SDS011;4618;48.818;9.088;2022-10-16T14:46:38;2.10;;;1.40;;
9166;SDS011;4618;48.818;9.088;2022-10-16T14:51:38;0.93;;;0.85;;
9166;SDS011;4618;48.818;9.088;2022-10-16T14:54:10;2.30;;;1.02;;
9166;SDS011;4618;48.818;9.088;2022-10-16T14:56:45;2.67;;;0.90;;
9166;SDS011;4618;48.818;9.088;2022-10-16T14:59:17;3.50;;;1.00;;
9166;SDS011;4618;48.818;9.088;2022-10-16T15:01:47;3.05;;;0.90;;
9166;SDS011;4618;48.818;9.088;2022-10-16T15:04:13;1.77;;;1.00;;
9166;SDS011;4618;48.818;9.088;2022-10-16T15:06:39;0.90;;;0.77;;
9166;SDS011;4618;48.818;9.088;2022-10-16T15:09:04;2.78;;;0.90;;
9166;SDS011;4618;48.818;9.088;2022-10-16T15:11:31;2.80;;;0.88;;
9166;SDS011;4618;48.818;9.088;2022-10-16T15:13:57;1.38;;;1.10;;
9166;SDS011;4618;48.818;9.088;2022-10-16T15:16:23;2.80;;;1.00;;
9166;SDS011;4618;48.818;9.088;2022-10-16T15:18:49;2.53;;;1.00;;
9166;SDS011;4618;48.818;9.088;2022-10-16T15:21:21;3.55;;;0.98;;
9166;SDS011;4618;48.818;9.088;2022-10-16T15:23:53;1.08;;;1.00;;
9166;SDS011;4618;48.818;9.088;2022-10-16T15:26:19;3.63;;;1.10;;
9166;SDS011;4618;48.818;9.088;2022-10-16T15:28:44;2.05;;;1.17;;
9166;SDS011;4618;48.818;9.088;2022-10-16T15:31:10;1.50;;;1.20;;
9166;SDS011;4618;48.818;9.088;2022-10-16T15:33:36;1.15;;;1.00;;
9166;SDS011;4618;48.818;9.088;2022-10-16T15:36:02;1.35;;;0.98;;
9166;SDS011;4618;48.818;9.088;2022-10-16T15:38:28;1.58;;;0.90;;
9166;SDS011;4618;48.818;9.088;2022-10-16T15:40:54;5.47;;;4.93;;
9166;SDS011;4618;48.818;9.088;2022-10-16T15:43:20;12.55;;;7.40;;
9166;SDS011;4618;48.818;9.088;2022-10-16T15:45:52;4.70;;;4.20;;
9166;SDS011;4618;48.818;9.088;2022-10-16T15:48:25;7.47;;;2.78;;
9166;SDS011;4618;48.818;9.088;2022-10-16T15:50:51;3.67;;;1.60;;
9166;SDS011;4618;48.818;9.088;2022-10-16T15:53:16;4.53;;;1.70;;
9166;SDS011;4618;48.818;9.088;2022-10-16T15:55:42;3.65;;;1.83;;
9166;SDS011;4618;48.818;9.088;2022-10-16T15:58:08;1.65;;;1.40;;
9166;SDS011;4618;48.818;9.088;2022-10-16T16:00:35;6.28;;;1.55;;
9166;SDS011;4618;48.818;9.088;2022-10-16T16:03:04;2.85;;;1.38;;
9166;SDS011;4618;48.818;9.088;2022-10-16T16:05:30;1.70;;;1.60;;
9166;SDS011;4618;48.818;9.088;2022-10-16T16:07:58;3.17;;;1.63;;
9166;SDS011;4618;48.818;9.088;2022-10-16T16:10:23;2.45;;;1.70;;
9166;SDS011;4618;48.818;9.088;2022-10-16T16:12:49;1.58;;;1.48;;
9166;SDS011;4618;48.818;9.088;2022-10-16T16:15:17;1.95;;;1.30;;
9166;SDS011;4618;48.818;9.088;2022-10-16T16:17:44;1.95;;;1.50;;
9166;SDS011;4618;48.818;9.088;2022-10-16T16:20:10;3.05;;;1.77;;
9166;SDS011;4618;48.818;9.088;2022-10-16T16:22:36;2.72;;;1.90;;
9166;SDS011;4618;48.818;9.088;2022-10-16T16:25:02;3.65;;;2.30;;
9166;SDS011;4618;48.818;9.088;2022-10-16T16:27:27;3.28;;;2.40;;
9166;SDS011;4618;48.818;9.088;2022-10-16T16:29:54;2.97;;;2.60;;
9166;SDS011;4618;48.818;9.088;2022-10-16T16:32:21;3.00;;;2.10;;
9166;SDS011;4618;48.818;9.088;2022-10-16T16:34:46;3.73;;;2.50;;
9166;SDS011;4618;48.818;9.088;2022-10-16T16:37:12;2.47;;;2.13;;
9166;SDS011;4618;48.818;9.088;2022-10-16T16:39:38;6.37;;;2.77;;
9166;SDS011;4618;48.818;9.088;2022-10-16T16:42:04;5.17;;;2.20;;
9166;SDS011;4618;48.818;9.088;2022-10-16T16:44:31;6.27;;;2.70;;
9166;SDS011;4618;48.818;9.088;2022-10-16T16:46:57;4.97;;;2.30;;
9166;SDS011;4618;48.818;9.088;2022-10-16T16:49:22;3.17;;;2.10;;
9166;SDS011;4618;48.818;9.088;2022-10-16T16:51:48;2.93;;;2.23;;
9166;SDS011;4618;48.818;9.088;2022-10-16T16:54:14;3.03;;;2.00;;
9166;SDS011;4618;48.818;9.088;2022-10-16T16:56:40;4.83;;;2.10;;
9166;SDS011;4618;48.818;9.088;2022-10-16T16:59:12;2.27;;;1.80;;
9166;SDS011;4618;48.818;9.088;2022-10-16T17:01:39;2.53;;;2.10;;
9166;SDS011;4618;48.818;9.088;2022-10-16T17:04:05;7.20;;;2.23;;
9166;SDS011;4618;48.818;9.088;2022-10-16T17:06:31;4.93;;;2.10;;
9166;SDS011;4618;48.818;9.088;2022-10-16T17:08:57;2.80;;;2.00;;
9166;SDS011;4618;48.818;9.088;2022-10-16T17:11:26;2.87;;;2.30;;
9166;SDS011;4618;48.818;9.088;2022-10-16T17:13:53;4.03;;;2.80;;
9166;SDS011;4618;48.818;9.088;2022-10-16T17:16:20;3.60;;;2.70;;
9166;SDS011;4618;48.818;9.088;2022-10-16T17:18:58;2.97;;;2.43;;
9166;SDS011;4618;48.818;9.088;2022-10-16T17:21:25;3.57;;;2.80;;
9166;SDS011;4618;48.818;9.088;2022-10-16T17:23:52;4.13;;;2.60;;
9166;SDS011;4618;48.818;9.088;2022-10-16T17:26:18;4.03;;;2.80;;
9166;SDS011;4618;48.818;9.088;2022-10-16T17:28:44;4.03;;;2.60;;
9166;SDS011;4618;48.818;9.088;2022-10-16T17:33:36;5.40;;;2.20;;
9166;SDS011;4618;48.818;9.088;2022-10-16T17:36:02;3.00;;;2.20;;
9166;SDS011;4618;48.818;9.088;2022-10-16T17:38:28;2.80;;;2.20;;
9166;SDS011;4618;48.818;9.088;2022-10-16T17:40:53;5.13;;;2.10;;
9166;SDS011;4618;48.818;9.088;2022-10-16T17:43:19;2.60;;;2.40;;
9166;SDS011;4618;48.818;9.088;2022-10-16T17:45:44;5.67;;;2.50;;
9166;SDS011;4618;48.818;9.088;2022-10-16T17:48:10;5.53;;;3.10;;
9166;SDS011;4618;48.818;9.088;2022-10-16T17:50:39;4.93;;;3.10;;